createdAt,value
2019-06-01T00:00:49.024Z,18.68
2019-06-01T00:01:57.238Z,18.66
2019-06-01T00:03:05.922Z,18.62
2019-06-01T00:04:14.243Z,18.58
2019-06-01T00:05:23.196Z,18.57
2019-06-01T00:06:31.139Z,18.58
2019-06-01T00:07:40.737Z,18.60
2019-06-01T00:08:49.297Z,18.60
2019-06-01T00:09:58.297Z,18.57
2019-06-01T00:11:06.672Z,18.61
2019-06-01T00:12:15.533Z,18.63
2019-06-01T00:13:23.837Z,18.62
2019-06-01T00:14:32.926Z,18.60
2019-06-01T00:15:41.932Z,18.60
2019-06-01T00:16:50.708Z,18.56
2019-06-01T00:17:58.885Z,18.56
2019-06-01T00:19:07.909Z,18.59
2019-06-01T00:20:16.349Z,18.59
2019-06-01T00:21:25.205Z,18.55
2019-06-01T00:22:33.238Z,18.52
2019-06-01T00:23:42.442Z,18.51
2019-06-01T00:24:50.582Z,18.53
2019-06-01T00:25:59.563Z,18.46
2019-06-01T00:27:07.848Z,18.48
2019-06-01T00:28:16.972Z,18.45
2019-06-01T00:29:25.112Z,18.45
2019-06-01T00:30:33.887Z,18.46
2019-06-01T00:31:43.072Z,18.43
2019-06-01T00:32:52.002Z,18.41
2019-06-01T00:34:00.015Z,18.44
2019-06-01T00:35:08.934Z,18.39
2019-06-01T00:36:17.029Z,18.38
2019-06-01T00:37:25.699Z,18.38
2019-06-01T00:38:33.609Z,18.34
2019-06-01T00:39:43.492Z,18.30
2019-06-01T00:40:52.050Z,18.27
2019-06-01T00:42:01.144Z,18.27
2019-06-01T00:43:09.490Z,18.28
2019-06-01T00:44:18.808Z,18.26
2019-06-01T00:45:26.978Z,18.24
2019-06-01T00:46:36.121Z,18.25
2019-06-01T00:47:44.793Z,18.26
2019-06-01T00:48:54.237Z,18.23
2019-06-01T00:50:02.477Z,18.23
2019-06-01T00:51:11.546Z,18.17
2019-06-01T00:52:20.021Z,18.14
2019-06-01T00:53:29.013Z,18.11
2019-06-01T00:54:37.467Z,18.09
2019-06-01T00:55:47.376Z,18.07
2019-06-01T00:56:55.579Z,18.05
2019-06-01T00:58:04.483Z,18.01
2019-06-01T00:59:12.443Z,17.99
2019-06-01T01:00:21.950Z,17.94
2019-06-01T01:01:30.005Z,17.89
2019-06-01T01:02:38.780Z,17.85
2019-06-01T01:03:48.110Z,17.85
2019-06-01T01:05:21.199Z,17.78
2019-06-01T01:06:29.565Z,17.76
2019-06-01T01:07:38.872Z,17.67
2019-06-01T01:08:47.158Z,17.68
2019-06-01T01:09:56.087Z,17.60
2019-06-01T01:11:04.264Z,17.60
2019-06-01T01:12:13.205Z,17.61
2019-06-01T01:13:23.065Z,17.60
2019-06-01T01:14:32.249Z,17.58
2019-06-01T01:15:40.385Z,17.54
2019-06-01T01:16:49.789Z,17.56
2019-06-01T01:17:57.887Z,17.57
2019-06-01T01:19:06.594Z,17.49
2019-06-01T01:20:15.046Z,17.45
2019-06-01T01:21:24.026Z,17.44
2019-06-01T01:22:32.240Z,17.44
2019-06-01T01:23:41.058Z,17.34
2019-06-01T01:24:50.431Z,17.24
2019-06-01T01:25:59.579Z,17.15
2019-06-01T01:27:07.759Z,17.10
2019-06-01T01:28:16.241Z,17.11
2019-06-01T01:29:24.330Z,17.09
2019-06-01T01:30:33.390Z,17.09
2019-06-01T01:31:41.072Z,17.09
2019-06-01T01:32:51.754Z,17.07
2019-06-01T01:33:59.969Z,17.05
2019-06-01T01:35:10.384Z,17.10
2019-06-01T01:36:18.482Z,17.15
2019-06-01T01:37:26.834Z,17.15
2019-06-01T01:38:34.948Z,17.11
2019-06-01T01:39:43.608Z,17.12
2019-06-01T01:40:52.156Z,17.10
2019-06-01T01:42:01.014Z,17.07
2019-06-01T01:43:09.204Z,17.06
2019-06-01T01:44:18.367Z,17.09
2019-06-01T01:45:26.514Z,17.15
2019-06-01T01:46:35.591Z,17.15
2019-06-01T01:47:43.697Z,17.16
2019-06-01T01:48:52.502Z,17.20
2019-06-01T01:50:00.577Z,17.19
2019-06-01T01:51:09.491Z,17.23
2019-06-01T01:52:17.350Z,17.19
2019-06-01T01:53:26.094Z,17.17
2019-06-01T01:54:34.224Z,17.21
2019-06-01T01:55:43.077Z,17.17
2019-06-01T01:56:52.089Z,17.17
2019-06-01T01:58:01.624Z,17.09
2019-06-01T01:59:09.990Z,17.08
2019-06-01T02:00:34.879Z,17.08
2019-06-01T02:01:42.968Z,17.06
2019-06-01T02:02:51.908Z,17.05
2019-06-01T02:04:00.087Z,17.03
2019-06-01T02:05:10.604Z,17.07
2019-06-01T02:06:18.588Z,17.07
2019-06-01T02:07:27.515Z,17.03
2019-06-01T02:08:35.800Z,16.98
2019-06-01T02:09:44.541Z,16.99
2019-06-01T02:10:53.298Z,16.94
2019-06-01T02:12:02.254Z,16.95
2019-06-01T02:13:10.445Z,16.95
2019-06-01T02:14:19.384Z,16.94
2019-06-01T02:15:27.782Z,16.95
2019-06-01T02:16:36.744Z,16.93
2019-06-01T02:17:44.807Z,16.90
2019-06-01T02:18:55.607Z,16.89
2019-06-01T02:20:03.557Z,16.90
2019-06-01T02:21:12.726Z,16.86
2019-06-01T02:22:20.852Z,16.88
2019-06-01T02:23:30.154Z,16.84
2019-06-01T02:24:38.216Z,16.84
2019-06-01T02:25:47.171Z,16.82
2019-06-01T02:26:55.156Z,16.86
2019-06-01T02:28:04.018Z,16.87
2019-06-01T02:29:12.227Z,16.89
2019-06-01T02:30:21.680Z,16.82
2019-06-01T02:31:40.877Z,16.85
2019-06-01T02:32:40.126Z,16.84
2019-06-01T02:33:48.080Z,16.80
2019-06-01T02:34:58.443Z,16.78
2019-06-01T02:36:06.670Z,16.77
2019-06-01T02:37:15.577Z,16.74
2019-06-01T02:38:23.639Z,16.74
2019-06-01T02:39:32.695Z,16.73
2019-06-01T02:40:40.937Z,16.74
2019-06-01T02:41:49.818Z,16.74
2019-06-01T02:42:59.235Z,16.70
2019-06-01T02:44:08.488Z,16.70
2019-06-01T02:45:18.927Z,16.69
2019-06-01T02:46:27.912Z,16.66
2019-06-01T02:47:36.223Z,16.69
2019-06-01T02:48:45.550Z,16.67
2019-06-01T02:49:53.605Z,16.65
2019-06-01T02:51:04.072Z,16.63
2019-06-01T02:52:12.209Z,16.62
2019-06-01T02:53:20.985Z,16.59
2019-06-01T02:54:29.112Z,16.59
2019-06-01T02:55:38.137Z,16.58
2019-06-01T02:56:46.229Z,16.57
2019-06-01T02:57:56.011Z,16.57
2019-06-01T02:59:04.499Z,16.55
2019-06-01T03:00:15.457Z,16.55
2019-06-01T03:01:36.303Z,16.57
2019-06-01T03:02:46.266Z,16.54
2019-06-01T03:03:57.569Z,16.50
2019-06-01T03:05:08.976Z,16.50
2019-06-01T03:06:18.952Z,16.49
2019-06-01T03:07:31.790Z,16.53
2019-06-01T03:08:41.155Z,16.54
2019-06-01T03:09:50.319Z,16.53
2019-06-01T03:11:01.812Z,16.49
2019-06-01T03:12:13.874Z,16.49
2019-06-01T03:13:25.507Z,16.48
2019-06-01T03:14:36.217Z,16.48
2019-06-01T03:15:47.591Z,16.47
2019-06-01T03:16:59.798Z,16.48
2019-06-01T03:18:09.572Z,16.47
2019-06-01T03:19:21.618Z,16.51
2019-06-01T03:20:32.134Z,16.57
2019-06-01T03:21:43.022Z,16.50
2019-06-01T03:22:55.022Z,16.57
2019-06-01T03:24:13.043Z,16.49
2019-06-01T03:25:20.833Z,16.52
2019-06-01T03:26:33.635Z,16.57
2019-06-01T03:27:44.288Z,16.53
2019-06-01T03:28:57.814Z,16.52
2019-06-01T03:30:12.264Z,16.56
2019-06-01T03:31:19.962Z,16.56
2019-06-01T03:32:36.179Z,16.56
2019-06-01T03:33:39.024Z,16.53
2019-06-01T03:34:47.010Z,16.56
2019-06-01T03:35:55.973Z,16.60
2019-06-01T03:37:04.940Z,16.61
2019-06-01T03:38:14.066Z,16.60
2019-06-01T03:39:22.834Z,16.65
2019-06-01T03:40:31.696Z,16.65
2019-06-01T03:41:40.663Z,16.64
2019-06-01T03:42:49.527Z,16.68
2019-06-01T03:43:57.633Z,16.61
2019-06-01T03:45:07.633Z,16.59
2019-06-01T03:46:16.024Z,16.54
2019-06-01T03:47:25.373Z,16.43
2019-06-01T03:48:33.673Z,16.45
2019-06-01T03:49:42.734Z,16.44
2019-06-01T03:50:51.070Z,16.44
2019-06-01T03:52:00.583Z,16.43
2019-06-01T03:53:09.919Z,16.44
2019-06-01T03:54:19.128Z,16.46
2019-06-01T03:55:27.359Z,16.46
2019-06-01T03:56:36.309Z,16.44
2019-06-01T03:57:44.503Z,16.38
2019-06-01T03:58:53.624Z,16.40
2019-06-01T04:00:03.211Z,16.40
2019-06-01T04:01:12.300Z,16.44
2019-06-01T04:02:32.514Z,16.45
2019-06-01T04:03:31.236Z,16.49
2019-06-01T04:04:39.721Z,16.54
2019-06-01T04:05:48.539Z,16.55
2019-06-01T04:06:56.947Z,16.60
2019-06-01T04:08:05.792Z,16.62
2019-06-01T04:09:13.880Z,16.65
2019-06-01T04:10:23.094Z,16.67
2019-06-01T04:11:31.368Z,16.70
2019-06-01T04:12:40.412Z,16.68
2019-06-01T04:13:48.488Z,16.69
2019-06-01T04:14:57.952Z,16.69
2019-06-01T04:16:06.372Z,16.72
2019-06-01T04:17:14.501Z,16.71
2019-06-01T04:18:22.421Z,16.75
2019-06-01T04:19:31.350Z,16.73
2019-06-01T04:20:39.492Z,16.74
2019-06-01T04:21:49.937Z,16.78
2019-06-01T04:22:57.914Z,16.78
2019-06-01T04:24:07.981Z,16.81
2019-06-01T04:25:16.123Z,16.81
2019-06-01T04:26:25.341Z,16.85
2019-06-01T04:27:33.549Z,16.87
2019-06-01T04:28:42.763Z,16.87
2019-06-01T04:29:50.900Z,16.88
2019-06-01T04:30:59.624Z,16.94
2019-06-01T04:32:08.663Z,16.95
2019-06-01T04:33:17.543Z,16.97
2019-06-01T04:34:26.003Z,16.98
2019-06-01T04:35:34.628Z,17.02
2019-06-01T04:36:43.104Z,17.05
2019-06-01T04:37:52.804Z,17.08
2019-06-01T04:39:01.100Z,17.11
2019-06-01T04:40:11.296Z,17.15
2019-06-01T04:41:19.711Z,17.17
2019-06-01T04:42:28.809Z,17.14
2019-06-01T04:43:37.057Z,17.16
2019-06-01T04:44:46.002Z,17.19
2019-06-01T04:45:54.279Z,17.17
2019-06-01T04:47:04.272Z,17.14
2019-06-01T04:48:12.634Z,17.14
2019-06-01T04:49:21.648Z,17.16
2019-06-01T04:50:29.976Z,17.14
2019-06-01T04:51:38.257Z,17.12
2019-06-01T04:52:46.660Z,17.14
2019-06-01T04:53:55.328Z,17.19
2019-06-01T04:55:05.065Z,17.20
2019-06-01T04:56:15.167Z,17.20
2019-06-01T04:57:23.409Z,17.21
2019-06-01T04:58:32.659Z,17.27
2019-06-01T04:59:40.624Z,17.32
2019-06-01T05:00:49.527Z,17.34
2019-06-01T05:01:57.456Z,17.41
2019-06-01T05:03:08.475Z,17.44
2019-06-01T05:04:15.593Z,17.43
2019-06-01T05:05:24.595Z,17.47
2019-06-01T05:06:32.983Z,17.53
2019-06-01T05:07:42.015Z,17.53
2019-06-01T05:08:50.157Z,17.56
2019-06-01T05:09:58.840Z,17.58
2019-06-01T05:11:08.554Z,17.62
2019-06-01T05:12:17.798Z,17.65
2019-06-01T05:13:25.943Z,17.66
2019-06-01T05:14:34.833Z,17.69
2019-06-01T05:15:43.355Z,17.70
2019-06-01T05:16:52.051Z,17.72
2019-06-01T05:18:00.356Z,17.75
2019-06-01T05:19:10.127Z,17.79
2019-06-01T05:20:18.822Z,17.81
2019-06-01T05:21:28.007Z,17.81
2019-06-01T05:22:36.202Z,17.82
2019-06-01T05:23:45.242Z,17.82
2019-06-01T05:24:53.193Z,17.82
2019-06-01T05:26:02.570Z,17.83
2019-06-01T05:27:11.139Z,17.85
2019-06-01T05:28:20.216Z,17.85
2019-06-01T05:29:28.384Z,17.78
2019-06-01T05:30:37.467Z,17.81
2019-06-01T05:31:45.813Z,17.80
2019-06-01T05:32:54.772Z,17.84
2019-06-01T05:34:02.935Z,17.89
2019-06-01T05:35:12.279Z,17.91
2019-06-01T05:36:20.549Z,17.96
2019-06-01T05:37:29.315Z,17.99
2019-06-01T05:38:37.462Z,18.05
2019-06-01T05:39:46.553Z,18.08
2019-06-01T05:40:54.682Z,18.10
2019-06-01T05:42:03.667Z,18.11
2019-06-01T05:43:14.869Z,18.15
2019-06-01T05:44:22.504Z,18.16
2019-06-01T05:45:30.827Z,18.18
2019-06-01T05:46:40.601Z,18.21
2019-06-01T05:47:49.031Z,18.20
2019-06-01T05:48:57.862Z,18.23
2019-06-01T05:50:08.621Z,18.28
2019-06-01T05:51:18.566Z,18.31
2019-06-01T05:52:26.765Z,18.36
2019-06-01T05:53:35.966Z,18.38
2019-06-01T05:54:44.704Z,18.43
2019-06-01T05:55:53.669Z,18.47
2019-06-01T05:57:01.867Z,18.53
2019-06-01T05:58:11.056Z,18.57
2019-06-01T05:59:19.112Z,18.63
2019-06-01T06:00:38.311Z,18.72
2019-06-01T06:01:46.553Z,18.70
2019-06-01T06:02:55.563Z,18.73
2019-06-01T06:04:03.856Z,18.79
2019-06-01T06:05:14.634Z,18.84
2019-06-01T06:06:23.027Z,18.90
2019-06-01T06:07:31.975Z,18.96
2019-06-01T06:08:40.053Z,18.97
2019-06-01T06:09:48.848Z,18.98
2019-06-01T06:10:57.040Z,19.00
2019-06-01T06:12:06.753Z,19.04
2019-06-01T06:13:15.444Z,19.08
2019-06-01T06:14:24.776Z,19.13
2019-06-01T06:15:33.227Z,19.15
2019-06-01T06:16:42.260Z,19.18
2019-06-01T06:17:50.631Z,19.17
2019-06-01T06:18:59.445Z,19.21
2019-06-01T06:20:08.164Z,19.20
2019-06-01T06:21:18.509Z,19.21
2019-06-01T06:22:26.595Z,19.24
2019-06-01T06:23:35.661Z,19.26
2019-06-01T06:24:43.726Z,19.20
2019-06-01T06:25:52.646Z,19.19
2019-06-01T06:27:00.733Z,19.19
2019-06-01T06:28:09.965Z,19.23
2019-06-01T06:29:18.906Z,19.26
2019-06-01T06:30:27.910Z,19.31
2019-06-01T06:31:36.054Z,19.33
2019-06-01T06:32:44.912Z,19.40
2019-06-01T06:33:56.956Z,19.47
2019-06-01T06:35:04.030Z,19.55
2019-06-01T06:36:12.032Z,19.62
2019-06-01T06:37:21.861Z,19.66
2019-06-01T06:38:29.939Z,19.62
2019-06-01T06:39:39.093Z,19.67
2019-06-01T06:40:47.354Z,19.66
2019-06-01T06:41:57.165Z,19.66
2019-06-01T06:43:18.672Z,19.67
2019-06-01T06:44:16.385Z,19.61
2019-06-01T06:45:24.969Z,19.61
2019-06-01T06:46:33.543Z,19.64
2019-06-01T06:47:41.752Z,19.66
2019-06-01T06:48:51.089Z,19.70
2019-06-01T06:49:59.497Z,19.77
2019-06-01T06:51:08.510Z,19.81
2019-06-01T06:52:17.447Z,19.86
2019-06-01T06:53:34.510Z,19.89
2019-06-01T06:54:35.601Z,19.88
2019-06-01T06:55:44.482Z,19.83
2019-06-01T06:56:52.682Z,19.87
2019-06-01T06:58:01.559Z,19.92
2019-06-01T06:59:11.744Z,19.98
2019-06-01T07:00:20.659Z,20.03
2019-06-01T07:01:28.648Z,20.08
2019-06-01T07:02:37.751Z,20.13
2019-06-01T07:03:45.931Z,20.17
2019-06-01T07:04:55.112Z,20.20
2019-06-01T07:06:03.456Z,20.23
2019-06-01T07:07:12.488Z,20.25
2019-06-01T07:08:20.428Z,20.27
2019-06-01T07:09:29.752Z,20.26
2019-06-01T07:10:37.893Z,20.30
2019-06-01T07:11:47.880Z,20.34
2019-06-01T07:12:56.058Z,20.38
2019-06-01T07:14:04.900Z,20.30
2019-06-01T07:15:13.091Z,20.33
2019-06-01T07:16:23.411Z,20.34
2019-06-01T07:17:31.951Z,20.41
2019-06-01T07:18:40.547Z,20.47
2019-06-01T07:19:48.848Z,20.53
2019-06-01T07:20:57.186Z,20.59
2019-06-01T07:22:05.384Z,20.64
2019-06-01T07:23:14.168Z,20.70
2019-06-01T07:24:22.376Z,20.76
2019-06-01T07:25:31.334Z,20.80
2019-06-01T07:26:40.216Z,20.86
2019-06-01T07:27:50.160Z,20.90
2019-06-01T07:28:58.478Z,20.94
2019-06-01T07:30:08.967Z,20.99
2019-06-01T07:31:17.302Z,21.03
2019-06-01T07:32:26.725Z,21.07
2019-06-01T07:33:35.129Z,21.10
2019-06-01T07:34:43.949Z,21.16
2019-06-01T07:35:52.243Z,21.17
2019-06-01T07:37:01.428Z,21.19
2019-06-01T07:38:09.721Z,21.23
2019-06-01T07:39:18.746Z,21.25
2019-06-01T07:40:28.888Z,21.27
2019-06-01T07:41:38.050Z,21.31
2019-06-01T07:42:46.449Z,21.32
2019-06-01T07:43:55.585Z,21.33
2019-06-01T07:45:05.068Z,21.35
2019-06-01T07:46:14.053Z,21.36
2019-06-01T07:47:22.776Z,21.40
2019-06-01T07:48:31.742Z,21.44
2019-06-01T07:49:39.705Z,21.50
2019-06-01T07:50:48.873Z,21.51
2019-06-01T07:51:57.026Z,21.54
2019-06-01T07:53:06.119Z,21.53
2019-06-01T07:54:14.221Z,21.58
2019-06-01T07:55:23.489Z,21.63
2019-06-01T07:56:32.748Z,21.69
2019-06-01T07:57:43.560Z,21.75
2019-06-01T07:58:51.040Z,21.82
2019-06-01T07:59:59.990Z,21.87
2019-06-01T08:01:08.290Z,21.90
2019-06-01T08:02:17.382Z,21.96
2019-06-01T08:03:28.727Z,21.98
2019-06-01T08:04:52.927Z,22.01
2019-06-01T08:05:45.653Z,22.05
2019-06-01T08:06:55.001Z,22.07
2019-06-01T08:08:03.125Z,22.09
2019-06-01T08:09:12.259Z,22.15
2019-06-01T08:10:21.346Z,22.21
2019-06-01T08:11:34.626Z,22.31
2019-06-01T08:12:40.724Z,22.39
2019-06-01T08:13:49.660Z,22.48
2019-06-01T08:14:57.961Z,22.61
2019-06-01T08:16:07.427Z,22.73
2019-06-01T08:17:15.410Z,22.79
2019-06-01T08:18:25.921Z,22.87
2019-06-01T08:19:34.838Z,22.96
2019-06-01T08:20:44.050Z,23.03
2019-06-01T08:21:53.149Z,23.13
2019-06-01T08:23:02.207Z,23.23
2019-06-01T08:24:10.212Z,23.33
2019-06-01T08:25:19.331Z,23.40
2019-06-01T08:26:28.456Z,23.44
2019-06-01T08:27:37.379Z,23.39
2019-06-01T08:28:45.455Z,23.37
2019-06-01T08:29:54.163Z,23.37
2019-06-01T08:31:02.225Z,23.35
2019-06-01T08:32:11.492Z,23.46
2019-06-01T08:33:19.767Z,23.56
2019-06-01T08:34:28.982Z,23.63
2019-06-01T08:35:37.193Z,23.69
2019-06-01T08:36:46.618Z,23.78
2019-06-01T08:37:54.997Z,23.82
2019-06-01T08:39:03.856Z,23.82
2019-06-01T08:40:12.671Z,23.83
2019-06-01T08:41:21.636Z,23.82
2019-06-01T08:42:29.871Z,23.73
2019-06-01T08:43:38.918Z,23.63
2019-06-01T08:44:46.957Z,23.57
2019-06-01T08:45:56.023Z,23.53
2019-06-01T08:47:04.029Z,23.56
2019-06-01T08:48:13.234Z,23.61
2019-06-01T08:49:21.396Z,23.70
2019-06-01T08:50:30.193Z,23.79
2019-06-01T08:51:38.524Z,23.92
2019-06-01T08:52:47.644Z,24.05
2019-06-01T08:53:57.436Z,24.07
2019-06-01T08:55:08.588Z,24.07
2019-06-01T08:56:16.766Z,24.05
2019-06-01T08:57:26.092Z,23.99
2019-06-01T08:58:34.690Z,24.02
2019-06-01T08:59:43.648Z,23.88
2019-06-01T09:00:52.135Z,23.94
2019-06-01T09:02:01.262Z,23.98
2019-06-01T09:03:09.640Z,23.96
2019-06-01T09:04:18.370Z,23.92
2019-06-01T09:05:27.963Z,23.90
2019-06-01T09:06:36.712Z,23.85
2019-06-01T09:07:44.774Z,23.73
2019-06-01T09:08:54.109Z,23.63
2019-06-01T09:10:02.905Z,23.56
2019-06-01T09:11:11.640Z,23.42
2019-06-01T09:12:19.763Z,23.38
2019-06-01T09:13:29.134Z,23.46
2019-06-01T09:14:37.440Z,23.49
2019-06-01T09:15:46.693Z,23.58
2019-06-01T09:16:55.059Z,23.52
2019-06-01T09:18:04.383Z,23.64
2019-06-01T09:19:12.921Z,23.80
2019-06-01T09:20:21.860Z,23.93
2019-06-01T09:21:29.877Z,24.05
2019-06-01T09:22:38.943Z,24.17
2019-06-01T09:23:47.282Z,24.28
2019-06-01T09:24:56.422Z,24.22
2019-06-01T09:26:05.116Z,24.16
2019-06-01T09:27:14.023Z,24.10
2019-06-01T09:28:22.134Z,24.09
2019-06-01T09:29:32.106Z,24.10
2019-06-01T09:30:40.527Z,24.12
2019-06-01T09:31:49.808Z,24.15
2019-06-01T09:32:58.321Z,24.10
2019-06-01T09:34:07.334Z,24.07
2019-06-01T09:35:15.781Z,24.07
2019-06-01T09:36:26.073Z,24.08
2019-06-01T09:37:35.032Z,24.13
2019-06-01T09:38:43.508Z,24.21
2019-06-01T09:39:52.013Z,24.26
2019-06-01T09:41:01.143Z,24.28
2019-06-01T09:42:09.390Z,24.30
2019-06-01T09:43:18.153Z,24.35
2019-06-01T09:44:26.878Z,24.48
2019-06-01T09:45:36.323Z,24.59
2019-06-01T09:46:44.420Z,24.62
2019-06-01T09:47:53.325Z,24.72
2019-06-01T09:49:01.549Z,24.83
2019-06-01T09:50:11.363Z,24.94
2019-06-01T09:51:19.661Z,24.98
2019-06-01T09:52:29.253Z,25.07
2019-06-01T09:53:38.072Z,25.11
2019-06-01T09:54:47.111Z,25.21
2019-06-01T09:55:55.411Z,25.30
2019-06-01T09:57:04.598Z,25.36
2019-06-01T09:58:13.043Z,25.37
2019-06-01T09:59:22.212Z,25.42
2019-06-01T10:00:30.562Z,25.50
2019-06-01T10:01:39.761Z,25.62
2019-06-01T10:02:47.974Z,25.75
2019-06-01T10:03:56.470Z,25.88
2019-06-01T10:05:05.170Z,25.94
2019-06-01T10:06:14.471Z,25.99
2019-06-01T10:07:22.577Z,26.00
2019-06-01T10:08:32.557Z,25.93
2019-06-01T10:09:42.181Z,25.90
2019-06-01T10:10:51.339Z,26.02
2019-06-01T10:11:59.481Z,26.23
2019-06-01T10:13:08.280Z,26.44
2019-06-01T10:14:16.478Z,26.50
2019-06-01T10:15:25.237Z,26.53
2019-06-01T10:16:34.524Z,26.66
2019-06-01T10:17:43.635Z,26.87
2019-06-01T10:18:52.346Z,27.08
2019-06-01T10:20:01.412Z,27.02
2019-06-01T10:21:10.250Z,27.20
2019-06-01T10:22:19.024Z,27.42
2019-06-01T10:23:27.243Z,27.60
2019-06-01T10:24:37.220Z,27.75
2019-06-01T10:25:45.512Z,27.92
2019-06-01T10:26:54.591Z,28.09
2019-06-01T10:28:03.152Z,28.26
2019-06-01T10:29:12.101Z,28.46
2019-06-01T10:30:20.493Z,28.58
2019-06-01T10:31:30.496Z,28.69
2019-06-01T10:32:39.929Z,28.82
2019-06-01T10:33:51.414Z,28.90
2019-06-01T10:34:58.555Z,29.04
2019-06-01T10:36:19.758Z,29.11
2019-06-01T10:37:17.756Z,29.10
2019-06-01T10:38:26.731Z,29.25
2019-06-01T10:39:35.261Z,29.45
2019-06-01T10:40:44.233Z,29.24
2019-06-01T10:41:52.589Z,28.93
2019-06-01T10:43:01.707Z,28.63
2019-06-01T10:44:09.921Z,28.27
2019-06-01T10:45:19.565Z,28.03
2019-06-01T10:46:27.917Z,27.81
2019-06-01T10:47:38.273Z,27.65
2019-06-01T10:48:46.625Z,27.49
2019-06-01T10:49:55.791Z,27.36
2019-06-01T10:51:04.148Z,27.58
2019-06-01T10:52:13.477Z,28.03
2019-06-01T10:53:21.966Z,28.54
2019-06-01T10:54:30.317Z,29.02
2019-06-01T10:55:38.529Z,29.39
2019-06-01T10:56:47.436Z,29.80
2019-06-01T10:57:55.443Z,30.13
2019-06-01T10:59:04.877Z,30.44
2019-06-01T11:00:14.212Z,30.73
2019-06-01T11:01:22.343Z,30.87
2019-06-01T11:02:30.428Z,31.09
2019-06-01T11:03:40.679Z,31.28
2019-06-01T11:04:48.836Z,31.33
2019-06-01T11:05:57.866Z,31.45
2019-06-01T11:07:06.275Z,31.61
2019-06-01T11:08:15.265Z,31.63
2019-06-01T11:09:23.861Z,31.79
2019-06-01T11:10:32.773Z,31.96
2019-06-01T11:11:41.161Z,32.12
2019-06-01T11:12:50.328Z,32.18
2019-06-01T11:13:58.282Z,32.26
2019-06-01T11:15:12.661Z,32.05
2019-06-01T11:16:21.051Z,31.87
2019-06-01T11:17:30.023Z,31.49
2019-06-01T11:18:39.452Z,31.23
2019-06-01T11:19:48.429Z,31.13
2019-06-01T11:20:57.147Z,31.08
2019-06-01T11:22:06.057Z,31.12
2019-06-01T11:23:14.145Z,30.96
2019-06-01T11:24:22.623Z,30.60
2019-06-01T11:25:31.228Z,30.32
2019-06-01T11:26:40.177Z,30.07
2019-06-01T11:27:48.489Z,30.00
2019-06-01T11:28:57.463Z,30.44
2019-06-01T11:30:08.764Z,30.58
2019-06-01T11:31:17.585Z,30.50
2019-06-01T11:32:25.769Z,30.53
2019-06-01T11:33:35.945Z,30.61
2019-06-01T11:34:44.531Z,30.47
2019-06-01T11:35:53.454Z,30.24
2019-06-01T11:37:05.607Z,29.98
2019-06-01T11:38:13.067Z,29.82
2019-06-01T11:39:21.323Z,29.60
2019-06-01T11:40:30.454Z,29.43
2019-06-01T11:41:38.907Z,29.29
2019-06-01T11:42:47.800Z,29.22
2019-06-01T11:43:55.861Z,29.11
2019-06-01T11:45:06.211Z,28.98
2019-06-01T11:46:14.230Z,28.85
2019-06-01T11:47:23.352Z,28.69
2019-06-01T11:48:31.406Z,28.59
2019-06-01T11:49:40.854Z,28.52
2019-06-01T11:50:48.939Z,28.43
2019-06-01T11:51:57.815Z,28.45
2019-06-01T11:53:06.140Z,28.57
2019-06-01T11:54:15.135Z,28.87
2019-06-01T11:55:23.327Z,29.07
2019-06-01T11:56:32.279Z,29.28
2019-06-01T11:57:41.584Z,29.60
2019-06-01T11:58:50.733Z,29.77
2019-06-01T11:59:58.908Z,29.70
2019-06-01T12:01:07.817Z,29.75
2019-06-01T12:02:15.860Z,29.82
2019-06-01T12:03:24.714Z,30.33
2019-06-01T12:04:32.958Z,30.65
2019-06-01T12:05:42.091Z,30.62
2019-06-01T12:06:50.648Z,30.83
2019-06-01T12:07:59.512Z,30.95
2019-06-01T12:09:11.875Z,31.13
2019-06-01T12:10:21.118Z,31.40
2019-06-01T12:11:29.065Z,31.37
2019-06-01T12:12:38.416Z,31.23
2019-06-01T12:13:46.933Z,30.99
2019-06-01T12:14:56.271Z,30.79
2019-06-01T12:16:04.599Z,30.97
2019-06-01T12:17:13.763Z,31.00
2019-06-01T12:18:22.168Z,30.82
2019-06-01T12:19:31.171Z,30.73
2019-06-01T12:20:40.663Z,30.66
2019-06-01T12:21:49.285Z,30.60
2019-06-01T12:22:57.256Z,30.80
2019-06-01T12:24:06.649Z,31.07
2019-06-01T12:25:15.197Z,31.13
2019-06-01T12:26:24.172Z,31.06
2019-06-01T12:27:32.095Z,31.00
2019-06-01T12:28:41.548Z,31.01
2019-06-01T12:29:52.560Z,30.92
2019-06-01T12:31:00.116Z,30.75
2019-06-01T12:32:08.239Z,30.61
2019-06-01T12:33:16.956Z,30.39
2019-06-01T12:34:25.444Z,30.17
2019-06-01T12:35:34.480Z,30.00
2019-06-01T12:36:42.738Z,29.82
2019-06-01T12:38:05.273Z,29.69
2019-06-01T12:39:01.832Z,29.51
2019-06-01T12:40:11.845Z,29.36
2019-06-01T12:41:20.984Z,29.23
2019-06-01T12:42:29.921Z,29.20
2019-06-01T12:43:38.004Z,29.07
2019-06-01T12:44:47.841Z,28.96
2019-06-01T12:46:06.941Z,28.94
2019-06-01T12:47:06.793Z,28.92
2019-06-01T12:48:15.220Z,28.87
2019-06-01T12:49:24.111Z,28.83
2019-06-01T12:50:31.951Z,28.80
2019-06-01T12:51:42.383Z,28.76
2019-06-01T12:52:50.494Z,28.72
2019-06-01T12:53:59.492Z,28.74
2019-06-01T12:55:08.180Z,28.78
2019-06-01T12:56:17.204Z,28.77
2019-06-01T12:57:25.398Z,28.89
2019-06-01T12:58:34.221Z,28.98
2019-06-01T12:59:43.205Z,28.94
2019-06-01T13:00:52.537Z,28.95
2019-06-01T13:02:00.756Z,28.94
2019-06-01T13:03:09.661Z,28.94
2019-06-01T13:04:17.794Z,28.99
2019-06-01T13:05:26.592Z,29.00
2019-06-01T13:06:34.943Z,29.01
2019-06-01T13:07:56.333Z,29.06
2019-06-01T13:08:53.761Z,29.07
2019-06-01T13:10:03.091Z,29.07
2019-06-01T13:11:11.216Z,29.13
2019-06-01T13:12:20.048Z,29.23
2019-06-01T13:13:28.181Z,29.35
2019-06-01T13:14:37.100Z,29.50
2019-06-01T13:15:45.257Z,29.74
2019-06-01T13:17:06.332Z,30.02
2019-06-01T13:18:04.386Z,30.09
2019-06-01T13:19:12.772Z,30.07
2019-06-01T13:20:21.140Z,30.04
2019-06-01T13:21:29.345Z,29.99
2019-06-01T13:22:37.425Z,29.92
2019-06-01T13:23:47.504Z,29.88
2019-06-01T13:24:55.985Z,29.84
2019-06-01T13:26:05.113Z,29.66
2019-06-01T13:27:13.175Z,29.56
2019-06-01T13:28:37.309Z,29.53
2019-06-01T13:29:31.682Z,29.50
2019-06-01T13:30:40.390Z,29.49
2019-06-01T13:31:48.453Z,29.38
2019-06-01T13:32:57.350Z,29.29
2019-06-01T13:34:05.530Z,29.22
2019-06-01T13:35:15.200Z,29.18
2019-06-01T13:36:23.499Z,29.28
2019-06-01T13:37:32.159Z,29.44
2019-06-01T13:38:40.350Z,29.50
2019-06-01T13:39:54.592Z,29.56
2019-06-01T13:40:58.763Z,29.64
2019-06-01T13:42:07.923Z,29.70
2019-06-01T13:43:16.139Z,29.72
2019-06-01T13:44:25.094Z,29.69
2019-06-01T13:45:33.106Z,29.69
2019-06-01T13:46:43.354Z,29.71
2019-06-01T13:47:51.891Z,29.72
2019-06-01T13:49:01.098Z,29.53
2019-06-01T13:50:09.940Z,29.54
2019-06-01T13:51:19.052Z,29.55
2019-06-01T13:52:27.027Z,29.64
2019-06-01T13:53:35.928Z,29.65
2019-06-01T13:54:44.108Z,29.70
2019-06-01T13:55:54.819Z,29.72
2019-06-01T13:57:03.099Z,29.66
2019-06-01T13:58:12.199Z,29.66
2019-06-01T13:59:20.327Z,29.58
2019-06-01T14:00:30.733Z,29.56
2019-06-01T14:01:39.256Z,29.50
2019-06-01T14:02:51.337Z,29.49
2019-06-01T14:03:58.126Z,29.45
2019-06-01T14:05:09.460Z,29.39
2019-06-01T14:06:18.153Z,29.38
2019-06-01T14:07:26.998Z,29.36
2019-06-01T14:08:35.025Z,29.38
2019-06-01T14:09:45.177Z,29.39
2019-06-01T14:10:53.488Z,29.49
2019-06-01T14:12:02.330Z,29.53
2019-06-01T14:13:10.886Z,29.49
2019-06-01T14:14:20.381Z,29.48
2019-06-01T14:15:29.062Z,29.48
2019-06-01T14:16:38.279Z,29.53
2019-06-01T14:17:47.867Z,29.55
2019-06-01T14:18:57.215Z,29.51
2019-06-01T14:20:08.175Z,29.50
2019-06-01T14:21:17.195Z,29.51
2019-06-01T14:22:25.518Z,29.51
2019-06-01T14:23:34.743Z,29.52
2019-06-01T14:24:45.622Z,29.49
2019-06-01T14:25:54.292Z,29.39
2019-06-01T14:27:04.187Z,29.39
2019-06-01T14:28:13.267Z,29.36
2019-06-01T14:29:21.664Z,29.31
2019-06-01T14:30:30.902Z,29.20
2019-06-01T14:31:39.217Z,29.10
2019-06-01T14:32:48.781Z,28.94
2019-06-01T14:33:57.116Z,28.83
2019-06-01T14:35:08.454Z,28.76
2019-06-01T14:36:17.302Z,28.67
2019-06-01T14:37:26.456Z,28.60
2019-06-01T14:38:46.634Z,28.52
2019-06-01T14:39:46.650Z,28.42
2019-06-01T14:40:55.216Z,28.36
2019-06-01T14:42:04.570Z,28.28
2019-06-01T14:43:12.956Z,28.26
2019-06-01T14:44:22.340Z,28.23
2019-06-01T14:45:30.293Z,28.14
2019-06-01T14:46:52.908Z,28.12
2019-06-01T14:47:49.383Z,28.07
2019-06-01T14:48:58.928Z,28.06